createdAt,value
2018-08-11T00:01:16.105Z,14.83
2018-08-11T00:03:45.034Z,14.33
2018-08-11T00:06:15.036Z,15.17
2018-08-11T00:08:44.968Z,16.00
2018-08-11T00:11:13.839Z,16.70
2018-08-11T00:13:42.735Z,18.50
2018-08-11T00:16:13.619Z,19.47
2018-08-11T00:18:42.527Z,19.10
2018-08-11T00:21:12.424Z,19.30
2018-08-11T00:23:43.304Z,19.90
2018-08-11T00:26:17.371Z,19.40
2018-08-11T00:28:47.238Z,19.20
2018-08-11T00:31:16.072Z,21.73
2018-08-11T00:33:45.967Z,19.33
2018-08-11T00:36:16.407Z,20.60
2018-08-11T00:38:45.379Z,19.50
2018-08-11T00:41:14.248Z,20.37
2018-08-11T00:43:44.139Z,20.80
2018-08-11T00:46:13.951Z,19.40
2018-08-11T00:48:44.848Z,20.90
2018-08-11T00:51:14.759Z,19.83
2018-08-11T00:53:43.667Z,19.87
2018-08-11T00:56:12.596Z,19.97
2018-08-11T00:58:41.443Z,20.07
2018-08-11T01:01:10.368Z,22.17
2018-08-11T01:03:39.396Z,23.63
2018-08-11T01:06:13.127Z,21.27
2018-08-11T01:08:46.967Z,20.90
2018-08-11T01:11:15.856Z,22.60
2018-08-11T01:13:46.764Z,22.60
2018-08-11T01:16:15.704Z,21.67
2018-08-11T01:18:49.972Z,20.70
2018-08-11T01:21:18.900Z,22.00
2018-08-11T01:23:48.791Z,21.93
2018-08-11T01:26:17.664Z,23.03
2018-08-11T01:28:48.088Z,23.63
2018-08-11T01:31:17.323Z,22.60
2018-08-11T01:33:47.595Z,22.77
2018-08-11T01:36:16.588Z,23.13
2018-08-11T01:38:45.456Z,21.77
2018-08-11T01:41:14.316Z,22.90
2018-08-11T01:43:43.176Z,23.47
2018-08-11T01:46:12.156Z,21.90
2018-08-11T01:48:41.262Z,22.70
2018-08-11T01:51:14.931Z,23.37
2018-08-11T01:53:45.147Z,22.67
2018-08-11T01:56:14.691Z,23.90
2018-08-11T01:58:44.648Z,22.90
2018-08-11T02:01:13.531Z,25.13
2018-08-11T02:03:42.351Z,25.60
2018-08-11T02:06:11.172Z,25.67
2018-08-11T02:08:41.023Z,24.50
2018-08-11T02:11:13.331Z,23.00
2018-08-11T02:13:43.216Z,25.67
2018-08-11T02:16:14.139Z,23.87
2018-08-11T02:18:43.020Z,25.43
2018-08-11T02:21:12.280Z,23.63
2018-08-11T02:23:41.096Z,24.60
2018-08-11T02:26:10.040Z,25.23
2018-08-11T02:28:38.887Z,26.40
2018-08-11T02:31:07.835Z,27.30
2018-08-11T02:33:37.668Z,25.10
2018-08-11T02:36:10.148Z,26.33
2018-08-11T02:38:40.999Z,27.73
2018-08-11T02:41:13.483Z,27.33
2018-08-11T02:43:43.392Z,27.80
2018-08-11T02:46:13.308Z,26.50
2018-08-11T02:48:43.175Z,30.10
2018-08-11T02:51:12.107Z,26.53
2018-08-11T02:53:42.144Z,26.60
2018-08-11T02:56:13.076Z,27.10
2018-08-11T02:58:46.951Z,28.27
2018-08-11T03:01:17.783Z,26.30
2018-08-11T03:03:47.603Z,27.20
2018-08-11T03:06:16.552Z,28.00
2018-08-11T03:08:47.436Z,29.60
2018-08-11T03:11:17.345Z,28.33
2018-08-11T03:13:47.199Z,27.00
2018-08-11T03:16:19.531Z,29.93
2018-08-11T03:18:48.412Z,27.30
2018-08-11T03:21:24.104Z,28.20
2018-08-11T03:23:52.983Z,28.50
2018-08-11T03:26:22.884Z,30.00
2018-08-11T03:28:51.755Z,28.47
2018-08-11T03:31:20.655Z,28.83
2018-08-11T03:33:53.091Z,28.10
2018-08-11T03:36:22.971Z,31.23
2018-08-11T03:38:51.971Z,29.10
2018-08-11T03:41:21.842Z,30.40
2018-08-11T03:43:50.751Z,31.73
2018-08-11T03:46:23.613Z,31.47
2018-08-11T03:48:52.528Z,28.13
2018-08-11T03:51:21.407Z,29.87
2018-08-11T03:53:54.348Z,30.77
2018-08-11T03:56:26.294Z,28.70
2018-08-11T03:58:56.266Z,29.60
2018-08-11T04:01:26.228Z,30.03
2018-08-11T04:03:55.184Z,28.20
2018-08-11T04:06:24.062Z,29.30
2018-08-11T04:08:52.963Z,29.50
2018-08-11T04:11:23.866Z,28.50
2018-08-11T04:13:57.746Z,31.73
2018-08-11T04:16:26.580Z,30.07
2018-08-11T04:18:56.499Z,31.43
2018-08-11T04:21:26.262Z,31.20
2018-08-11T04:23:56.102Z,28.97
2018-08-11T04:26:24.926Z,31.57
2018-08-11T04:29:03.751Z,32.30
2018-08-11T04:31:32.622Z,30.80
2018-08-11T04:34:05.198Z,31.10
2018-08-11T04:36:35.188Z,29.83
2018-08-11T04:39:06.310Z,30.60
2018-08-11T04:41:36.603Z,28.93
2018-08-11T04:44:07.699Z,32.13
2018-08-11T04:46:43.798Z,30.40
2018-08-11T04:49:13.706Z,30.30
2018-08-11T04:51:49.347Z,29.50
2018-08-11T04:54:19.146Z,29.90
2018-08-11T04:56:52.591Z,30.83
2018-08-11T04:59:21.458Z,30.47
2018-08-11T05:01:50.327Z,32.07
2018-08-11T05:04:19.238Z,29.07
2018-08-11T05:06:48.183Z,31.03
2018-08-11T05:09:17.151Z,30.23
2018-08-11T05:11:51.409Z,29.90
2018-08-11T05:14:20.359Z,30.17
2018-08-11T05:16:50.322Z,27.33
2018-08-11T05:19:19.307Z,28.50
2018-08-11T05:21:51.339Z,27.43
2018-08-11T05:24:21.234Z,26.13
2018-08-11T05:26:50.150Z,26.20
2018-08-11T05:29:18.999Z,26.50
2018-08-11T05:31:53.683Z,24.40
2018-08-11T05:34:23.491Z,24.10
2018-08-11T05:36:52.391Z,25.93
2018-08-11T05:39:23.239Z,28.03
2018-08-11T05:41:53.023Z,26.30
2018-08-11T05:44:21.886Z,24.80
2018-08-11T05:46:50.694Z,23.10
2018-08-11T05:49:23.671Z,23.13
2018-08-11T05:51:52.419Z,23.43
2018-08-11T05:54:22.342Z,24.50
2018-08-11T05:56:52.262Z,21.07
2018-08-11T05:59:21.067Z,20.97
2018-08-11T06:01:49.887Z,20.60
2018-08-11T06:04:18.855Z,17.50
2018-08-11T06:06:54.163Z,16.03
2018-08-11T06:09:22.998Z,14.53
2018-08-11T06:11:51.778Z,15.13
2018-08-11T06:14:22.603Z,13.00
2018-08-11T06:16:53.467Z,11.90
2018-08-11T06:19:22.343Z,11.30
2018-08-11T06:21:53.155Z,12.07
2018-08-11T06:24:21.940Z,11.07
2018-08-11T06:26:51.876Z,9.50
2018-08-11T06:29:24.126Z,10.23
2018-08-11T06:31:58.520Z,7.80
2018-08-11T06:34:30.219Z,7.40
2018-08-11T06:37:00.047Z,5.27
2018-08-11T06:39:28.974Z,6.13
2018-08-11T06:41:59.186Z,5.53
2018-08-11T06:44:28.087Z,4.73
2018-08-11T06:47:00.968Z,4.70
2018-08-11T06:49:32.871Z,3.90
2018-08-11T06:52:05.808Z,3.13
2018-08-11T06:54:34.638Z,3.43
2018-08-11T06:57:04.727Z,3.33
2018-08-11T06:59:33.550Z,2.73
2018-08-11T07:02:03.922Z,2.40
2018-08-11T07:04:34.710Z,1.90
2018-08-11T07:07:04.729Z,1.70
2018-08-11T07:09:34.451Z,1.87
2018-08-11T07:12:04.271Z,1.67
2018-08-11T07:14:35.074Z,1.63
2018-08-11T07:17:14.451Z,1.67
2018-08-11T07:19:43.303Z,1.30
2018-08-11T07:22:14.139Z,1.57
2018-08-11T07:24:44.955Z,1.50
2018-08-11T07:27:15.818Z,1.57
2018-08-11T07:29:48.579Z,1.33
2018-08-11T07:32:18.403Z,1.57
2018-08-11T07:34:53.587Z,1.50
2018-08-11T07:37:23.470Z,1.50
2018-08-11T07:39:53.246Z,1.33
2018-08-11T07:42:25.727Z,1.30
2018-08-11T07:44:57.610Z,2.07
2018-08-11T07:47:26.364Z,1.60
2018-08-11T07:50:07.210Z,1.60
2018-08-11T07:52:36.015Z,1.93
2018-08-11T07:55:05.834Z,1.30
2018-08-11T07:57:34.638Z,1.67
2018-08-11T08:00:07.152Z,1.67
2018-08-11T08:02:36.007Z,1.30
2018-08-11T08:05:05.283Z,1.40
2018-08-11T08:07:36.047Z,1.57
2018-08-11T08:10:05.446Z,1.40
2018-08-11T08:12:34.223Z,1.40
2018-08-11T08:15:05.322Z,1.10
2018-08-11T08:17:37.991Z,1.30
2018-08-11T08:20:07.808Z,1.20
2018-08-11T08:22:36.711Z,1.40
2018-08-11T08:25:07.495Z,1.50
2018-08-11T08:27:36.423Z,1.30
2018-08-11T08:30:09.435Z,1.20
2018-08-11T08:32:38.283Z,1.50
2018-08-11T08:35:07.067Z,1.20
2018-08-11T08:37:37.779Z,1.27
2018-08-11T08:40:10.251Z,0.90
2018-08-11T08:42:39.041Z,1.13
2018-08-11T08:45:09.117Z,1.10
2018-08-11T08:47:37.952Z,1.00
2018-08-11T08:50:06.875Z,1.20
2018-08-11T08:52:36.695Z,1.37
2018-08-11T08:55:09.391Z,1.10
2018-08-11T08:57:39.255Z,1.43
2018-08-11T09:00:08.067Z,1.10
2018-08-11T09:02:42.363Z,1.30
2018-08-11T09:05:11.240Z,1.27
2018-08-11T09:07:43.707Z,1.13
2018-08-11T09:10:13.502Z,1.30
2018-08-11T09:12:42.291Z,1.10
2018-08-11T09:15:11.371Z,1.00
2018-08-11T09:17:50.643Z,1.33
2018-08-11T09:20:19.683Z,1.33
2018-08-11T09:22:48.507Z,1.53
2018-08-11T09:25:17.303Z,1.20
2018-08-11T09:27:50.834Z,1.20
2018-08-11T09:30:22.098Z,1.07
2018-08-11T09:32:50.914Z,1.13
2018-08-11T09:35:24.834Z,1.53
2018-08-11T09:37:55.712Z,1.90
2018-08-11T09:40:24.643Z,1.00
2018-08-11T09:42:54.463Z,1.00
2018-08-11T09:45:23.191Z,1.13
2018-08-11T09:47:52.986Z,1.30
2018-08-11T09:50:23.802Z,1.27
2018-08-11T09:52:52.546Z,1.73
2018-08-11T09:55:21.758Z,1.13
2018-08-11T09:57:51.518Z,1.27
2018-08-11T10:00:29.250Z,1.30
2018-08-11T10:02:59.002Z,1.70
2018-08-11T10:05:29.914Z,1.30
2018-08-11T10:08:09.855Z,1.20
2018-08-11T10:10:38.775Z,1.13
2018-08-11T10:13:08.510Z,1.30
2018-08-11T10:15:43.019Z,0.90
2018-08-11T10:18:15.110Z,1.00
2018-08-11T10:20:48.014Z,1.83
2018-08-11T10:23:16.845Z,1.20
2018-08-11T10:25:49.158Z,1.10
2018-08-11T10:28:19.970Z,1.10
2018-08-11T10:30:49.774Z,1.00
2018-08-11T10:33:24.118Z,0.83
2018-08-11T10:36:09.054Z,1.20
2018-08-11T10:38:47.301Z,1.40
2018-08-11T10:41:23.279Z,1.40
2018-08-11T10:43:52.110Z,0.90
2018-08-11T10:46:20.903Z,1.17
2018-08-11T10:48:55.862Z,1.20
2018-08-11T10:51:24.626Z,1.17
2018-08-11T10:53:53.414Z,1.53
2018-08-11T10:56:29.195Z,1.10
2018-08-11T10:58:57.949Z,1.00
2018-08-11T11:01:28.040Z,1.23
2018-08-11T11:03:56.898Z,1.30
2018-08-11T11:06:38.395Z,0.97
2018-08-11T11:09:16.768Z,1.30
2018-08-11T11:11:56.658Z,1.60
2018-08-11T11:14:25.624Z,1.23
2018-08-11T11:17:06.215Z,1.37
2018-08-11T11:19:35.978Z,1.30
2018-08-11T11:22:06.035Z,1.20
2018-08-11T11:24:34.884Z,1.20
2018-08-11T11:27:04.675Z,1.00
2018-08-11T11:29:35.474Z,1.53
2018-08-11T11:32:09.346Z,1.37
2018-08-11T11:34:39.259Z,1.53
2018-08-11T11:37:09.103Z,1.40
2018-08-11T11:39:38.858Z,1.40
2018-08-11T11:42:15.153Z,1.20
2018-08-11T11:44:50.010Z,1.07
2018-08-11T11:47:23.466Z,1.43
2018-08-11T11:49:54.194Z,1.30
2018-08-11T11:52:22.979Z,1.37
2018-08-11T11:54:51.778Z,1.50
2018-08-11T11:57:23.731Z,1.10
2018-08-11T11:59:58.072Z,1.50
2018-08-11T12:02:31.426Z,1.00
2018-08-11T12:05:03.552Z,1.40
2018-08-11T12:07:32.399Z,1.00
2018-08-11T12:10:02.254Z,1.13
2018-08-11T12:12:31.102Z,1.90
2018-08-11T12:15:00.918Z,1.67
2018-08-11T12:17:36.485Z,1.80
2018-08-11T12:20:10.218Z,0.87
2018-08-11T12:22:39.074Z,1.20
2018-08-11T12:25:08.426Z,1.33
2018-08-11T12:27:37.278Z,1.30
2018-08-11T12:30:10.790Z,1.50
2018-08-11T12:32:51.798Z,1.40
2018-08-11T12:35:21.621Z,1.00
2018-08-11T12:37:58.029Z,1.40
2018-08-11T12:40:32.754Z,1.30
2018-08-11T12:43:06.358Z,1.50
2018-08-11T12:45:45.739Z,1.23
2018-08-11T12:48:14.577Z,1.33
2018-08-11T12:50:43.766Z,1.10
2018-08-11T12:53:23.143Z,1.77
2018-08-11T12:55:56.698Z,1.20
2018-08-11T12:58:31.306Z,1.37
2018-08-11T13:01:05.022Z,1.60
2018-08-11T13:03:41.318Z,0.97
2018-08-11T13:06:10.187Z,0.97
2018-08-11T13:08:39.954Z,0.87
2018-08-11T13:11:08.775Z,0.83
2018-08-11T13:13:41.442Z,1.00
2018-08-11T13:16:10.278Z,1.00
2018-08-11T13:18:40.043Z,1.00
2018-08-11T13:21:08.806Z,1.10
2018-08-11T13:23:41.826Z,1.10
2018-08-11T13:26:18.223Z,0.97
2018-08-11T13:28:49.094Z,1.20
2018-08-11T13:31:21.277Z,0.83
2018-08-11T13:33:52.124Z,1.10
2018-08-11T13:36:20.918Z,1.07
2018-08-11T13:38:53.866Z,1.13
2018-08-11T13:41:37.549Z,1.20
2018-08-11T13:44:17.358Z,0.90
2018-08-11T13:46:50.704Z,1.33
2018-08-11T13:49:22.769Z,1.00
2018-08-11T13:51:53.570Z,1.20
2018-08-11T13:54:23.561Z,1.10
2018-08-11T13:56:53.310Z,1.30
2018-08-11T13:59:23.222Z,1.30
2018-08-11T14:01:54.090Z,2.13
2018-08-11T14:04:22.934Z,1.33
2018-08-11T14:06:52.926Z,1.10
2018-08-11T14:09:23.698Z,1.07
2018-08-11T14:11:53.494Z,1.60
2018-08-11T14:14:22.290Z,1.30
2018-08-11T14:16:52.090Z,1.47
2018-08-11T14:19:21.918Z,1.40
2018-08-11T14:21:50.705Z,1.23
2018-08-11T14:24:19.502Z,1.20
2018-08-11T14:26:50.514Z,1.00
2018-08-11T14:29:21.390Z,1.00
2018-08-11T14:31:56.350Z,1.30
2018-08-11T14:34:26.119Z,1.20
2018-08-11T14:36:56.994Z,1.70
2018-08-11T14:39:38.034Z,1.33
2018-08-11T14:42:14.818Z,1.13
2018-08-11T14:44:44.586Z,1.30
2018-08-11T14:47:18.201Z,0.80
2018-08-11T14:49:46.969Z,1.10
2018-08-11T14:52:23.510Z,1.30
2018-08-11T14:55:09.097Z,1.00
2018-08-11T14:57:38.850Z,1.20
2018-08-11T15:00:10.775Z,1.27
2018-08-11T15:02:43.681Z,1.30
2018-08-11T15:05:18.101Z,1.30
2018-08-11T15:07:46.906Z,1.07
2018-08-11T15:10:15.678Z,1.10
2018-08-11T15:12:44.445Z,1.50
2018-08-11T15:15:19.956Z,1.40
2018-08-11T15:17:55.789Z,1.63
2018-08-11T15:20:25.574Z,1.40
2018-08-11T15:22:59.229Z,1.30
2018-08-11T15:28:26.854Z,1.03
2018-08-11T15:30:58.713Z,1.00
2018-08-11T15:33:27.561Z,1.00
2018-08-11T15:35:58.238Z,1.60
2018-08-11T15:38:37.005Z,2.10
2018-08-11T15:41:05.809Z,1.30
2018-08-11T15:43:36.573Z,1.70
2018-08-11T15:46:09.058Z,1.10
2018-08-11T15:48:40.938Z,1.10
2018-08-11T15:51:11.766Z,1.20
2018-08-11T15:53:40.586Z,1.20
2018-08-11T15:56:14.362Z,0.90
2018-08-11T15:58:43.118Z,1.33
2018-08-11T16:01:29.102Z,1.00
2018-08-11T16:04:15.082Z,1.70
2018-08-11T16:06:44.846Z,1.40
2018-08-11T16:09:20.120Z,1.20
2018-08-11T16:11:56.906Z,1.10
2018-08-11T16:14:27.699Z,1.43
2018-08-11T16:16:57.489Z,1.43
2018-08-11T16:19:26.222Z,1.03
2018-08-11T16:21:55.038Z,1.20
2018-08-11T16:24:23.829Z,1.10
2018-08-11T16:26:56.426Z,1.23
2018-08-11T16:29:28.499Z,1.40
2018-08-11T16:31:57.182Z,1.20
2018-08-11T16:34:25.957Z,1.10
2018-08-11T16:36:57.945Z,1.30
2018-08-11T16:39:29.902Z,1.00
2018-08-11T16:42:00.624Z,1.60
2018-08-11T16:44:42.378Z,1.20
2018-08-11T16:47:11.190Z,1.30
2018-08-11T16:49:40.005Z,1.17
2018-08-11T16:52:08.797Z,1.10
2018-08-11T16:54:38.585Z,1.50
2018-08-11T16:57:07.377Z,1.37
2018-08-11T16:59:37.215Z,1.10
2018-08-11T17:02:19.877Z,1.30
2018-08-11T17:04:52.885Z,0.93
2018-08-11T17:07:21.661Z,1.13
2018-08-11T17:09:52.414Z,1.20
2018-08-11T17:12:21.225Z,0.83
2018-08-11T17:14:58.690Z,1.27
2018-08-11T17:17:28.529Z,1.33
2018-08-11T17:20:02.510Z,1.80
2018-08-11T17:22:32.321Z,1.70
2018-08-11T17:25:02.130Z,1.40
2018-08-11T17:27:30.918Z,1.20
2018-08-11T17:29:59.697Z,1.20
2018-08-11T17:32:30.464Z,1.60
2018-08-11T17:35:11.450Z,1.47
2018-08-11T17:37:40.201Z,2.40
2018-08-11T17:40:09.481Z,2.20
2018-08-11T17:42:38.569Z,1.50
2018-08-11T17:45:17.045Z,1.43
2018-08-11T17:47:56.902Z,1.20
2018-08-11T17:50:31.714Z,1.37
2018-08-11T17:53:00.485Z,1.40
2018-08-11T17:55:29.542Z,1.33
2018-08-11T17:58:01.445Z,1.30
2018-08-11T18:03:31.397Z,1.70
2018-08-11T18:06:24.981Z,1.57
2018-08-11T18:09:22.549Z,1.10
2018-08-11T18:12:00.102Z,1.87
2018-08-11T18:14:40.921Z,1.20
2018-08-11T18:17:18.081Z,1.10
2018-08-11T18:19:50.427Z,1.30
2018-08-11T18:22:20.221Z,1.33
2018-08-11T18:24:58.581Z,1.27
2018-08-11T18:27:27.346Z,1.30
2018-08-11T18:29:57.137Z,1.67
2018-08-11T18:32:38.982Z,1.10
2018-08-11T18:35:14.301Z,1.30
2018-08-11T18:37:55.377Z,1.30
2018-08-11T18:40:41.753Z,1.50
2018-08-11T18:43:18.134Z,1.40
2018-08-11T18:45:50.605Z,1.40
2018-08-11T18:48:19.369Z,1.57
2018-08-11T18:50:48.169Z,1.30
2018-08-11T18:53:21.464Z,1.40
2018-08-11T18:55:56.841Z,1.60
2018-08-11T18:58:48.474Z,1.30
2018-08-11T19:01:17.332Z,1.80
2018-08-11T19:03:46.126Z,1.70
2018-08-11T19:06:21.074Z,1.70
2018-08-11T19:08:58.073Z,1.70
2018-08-11T19:11:26.920Z,1.80
2018-08-11T19:13:55.644Z,1.40
2018-08-11T19:16:24.488Z,1.43
2018-08-11T19:18:53.352Z,1.73
2018-08-11T19:21:22.197Z,1.70
2018-08-11T19:23:55.051Z,1.63
2018-08-11T19:26:31.357Z,1.57
2018-08-11T19:29:00.257Z,1.53
2018-08-11T19:31:33.934Z,1.70
2018-08-11T19:34:14.549Z,1.73
2018-08-11T19:36:44.429Z,1.60
2018-08-11T19:39:16.672Z,1.47
2018-08-11T19:41:46.489Z,1.77
2018-08-11T19:44:15.324Z,1.90
2018-08-11T19:46:44.181Z,1.83
2018-08-11T19:49:13.152Z,1.80
2018-08-11T19:51:46.104Z,1.90
2018-08-11T19:54:14.916Z,2.30
2018-08-11T19:56:58.296Z,2.10
2018-08-11T19:59:28.132Z,2.43
2018-08-11T20:02:07.601Z,2.17
2018-08-11T20:04:36.408Z,2.10
2018-08-11T20:07:06.368Z,1.80
2018-08-11T20:09:35.337Z,1.83
2018-08-11T20:12:04.229Z,1.63
2018-08-11T20:14:35.025Z,1.77
2018-08-11T20:17:03.816Z,1.40
2018-08-11T20:19:32.589Z,1.77
2018-08-11T20:22:10.989Z,1.80
2018-08-11T20:24:45.220Z,2.03
2018-08-11T20:27:15.793Z,2.20
2018-08-11T20:29:44.701Z,2.10
2018-08-11T20:32:20.158Z,1.60
2018-08-11T20:34:50.944Z,2.00
2018-08-11T20:37:19.841Z,2.00
2018-08-11T20:39:58.689Z,1.83
2018-08-11T20:42:31.057Z,2.57
2018-08-11T20:45:00.964Z,2.33
2018-08-11T20:47:29.891Z,2.30
2018-08-11T20:50:02.729Z,2.17
2018-08-11T20:52:31.573Z,1.97
2018-08-11T20:55:01.441Z,2.77
2018-08-11T20:57:32.229Z,2.10
2018-08-11T21:00:03.192Z,2.13
2018-08-11T21:02:31.979Z,1.77
2018-08-11T21:05:01.829Z,2.00
2018-08-11T21:07:30.689Z,1.80
2018-08-11T21:09:59.493Z,1.70
2018-08-11T21:12:28.421Z,2.20
2018-08-11T21:14:57.276Z,2.10
2018-08-11T21:17:27.340Z,1.60
2018-08-11T21:19:56.144Z,1.87
2018-08-11T21:22:25.180Z,1.80
2018-08-11T21:24:55.024Z,1.73
2018-08-11T21:27:23.930Z,2.50
2018-08-11T21:29:52.744Z,2.20
2018-08-11T21:32:21.628Z,2.90
2018-08-11T21:34:51.071Z,2.87
2018-08-11T21:37:19.956Z,2.40
2018-08-11T21:39:51.944Z,2.10
2018-08-11T21:42:20.764Z,2.70
2018-08-11T21:44:51.668Z,2.80
2018-08-11T21:47:23.845Z,2.47
2018-08-11T21:49:53.668Z,3.00
2018-08-11T21:52:23.464Z,2.77
2018-08-11T21:54:52.428Z,3.10
2018-08-11T21:57:21.284Z,2.40
2018-08-11T22:00:04.137Z,2.60
2018-08-11T22:02:40.452Z,2.60
2018-08-11T22:05:12.932Z,2.80
2018-08-11T22:07:46.005Z,2.87
2018-08-11T22:10:16.848Z,3.13
2018-08-11T22:12:45.596Z,3.10
2018-08-11T22:15:21.133Z,3.03
2018-08-11T22:17:54.037Z,3.30
2018-08-11T22:20:23.852Z,2.77
2018-08-11T22:23:00.048Z,3.10
2018-08-11T22:25:33.392Z,3.13
2018-08-11T22:28:04.520Z,3.23
2018-08-11T22:30:33.336Z,3.37
2018-08-11T22:33:03.058Z,3.70
2018-08-11T22:35:32.877Z,3.13
2018-08-11T22:38:01.652Z,3.00
2018-08-11T22:40:31.453Z,3.53
2018-08-11T22:43:05.406Z,2.70
2018-08-11T22:45:35.196Z,2.87
2018-08-11T22:48:03.988Z,2.90
2018-08-11T22:50:33.777Z,3.47
2018-08-11T22:53:02.686Z,2.80
2018-08-11T22:55:33.396Z,2.77
2018-08-11T22:58:05.777Z,2.67
2018-08-11T23:00:34.560Z,2.63
2018-08-11T23:03:03.405Z,2.87
2018-08-11T23:05:35.409Z,3.17
2018-08-11T23:08:08.920Z,2.73
2018-08-11T23:10:38.752Z,2.80
2018-08-11T23:13:12.612Z,3.23
2018-08-11T23:15:44.500Z,3.07
2018-08-11T23:18:13.272Z,3.17
2018-08-11T23:20:46.173Z,2.97
2018-08-11T23:23:20.280Z,3.20
2018-08-11T23:25:49.981Z,3.70
2018-08-11T23:28:19.796Z,4.10
2018-08-11T23:30:56.301Z,3.37
2018-08-11T23:33:25.057Z,3.60
2018-08-11T23:36:01.412Z,3.23
2018-08-11T23:38:31.241Z,3.10
2018-08-11T23:41:00.021Z,3.07
2018-08-11T23:43:29.819Z,3.30
2018-08-11T23:46:03.416Z,2.37
2018-08-11T23:48:32.213Z,3.00
2018-08-11T23:51:05.667Z,3.97
2018-08-11T23:53:35.428Z,2.73
2018-08-11T23:56:04.204Z,2.97
2018-08-11T23:58:38.767Z,2.73
